createdAt,value
2016-06-12T00:00:23.745Z,1004.78
2016-06-12T00:01:23.764Z,1004.81
2016-06-12T00:02:23.767Z,1004.77
2016-06-12T00:03:23.770Z,1004.76
2016-06-12T00:04:23.788Z,1004.77
2016-06-12T00:05:24.307Z,1004.75
2016-06-12T00:06:23.794Z,1004.8
2016-06-12T00:07:23.798Z,1004.74
2016-06-12T00:08:23.817Z,1004.75
2016-06-12T00:09:23.845Z,1004.73
2016-06-12T00:10:23.887Z,1004.73
2016-06-12T00:11:23.928Z,1004.73
2016-06-12T00:12:23.985Z,1004.73
2016-06-12T00:13:24.026Z,1004.71
2016-06-12T00:14:24.051Z,1004.75
2016-06-12T00:15:24.082Z,1004.72
2016-06-12T00:16:24.100Z,1004.71
2016-06-12T00:17:24.116Z,1004.75
2016-06-12T00:18:24.133Z,1004.74
2016-06-12T00:19:24.160Z,1004.74
2016-06-12T00:20:24.168Z,1004.73
2016-06-12T00:21:24.192Z,1004.72
2016-06-12T00:22:24.200Z,1004.71
2016-06-12T00:23:24.208Z,1004.67
2016-06-12T00:24:24.214Z,1004.68
2016-06-12T00:25:24.234Z,1004.68
2016-06-12T00:26:24.239Z,1004.67
2016-06-12T00:27:24.244Z,1004.66
2016-06-12T00:28:24.249Z,1004.67
2016-06-12T00:29:24.253Z,1004.65
2016-06-12T00:30:24.273Z,1004.63
2016-06-12T00:31:24.276Z,1004.58
2016-06-12T00:32:24.280Z,1004.61
2016-06-12T00:33:24.283Z,1004.56
2016-06-12T00:34:24.302Z,1004.55
2016-06-12T00:35:24.321Z,1004.56
2016-06-12T00:36:24.308Z,1004.52
2016-06-12T00:37:24.328Z,1004.52
2016-06-12T00:38:24.331Z,1004.49
2016-06-12T00:39:24.334Z,1004.49
2016-06-12T00:40:24.338Z,1004.49
2016-06-12T00:41:24.356Z,1004.45
2016-06-12T00:42:24.360Z,1004.43
2016-06-12T00:43:24.362Z,1004.46
2016-06-12T00:44:24.366Z,1004.43
2016-06-12T00:45:24.384Z,1004.41
2016-06-12T00:46:24.387Z,1004.4
2016-06-12T00:47:24.390Z,1004.42
2016-06-12T00:48:24.409Z,1004.38
2016-06-12T00:49:24.412Z,1004.4
2016-06-12T00:50:24.978Z,1004.4
2016-06-12T00:51:24.418Z,1004.39
2016-06-12T00:52:24.438Z,1004.4
2016-06-12T00:53:24.440Z,1004.41
2016-06-12T00:54:24.459Z,1004.41
2016-06-12T00:55:24.462Z,1004.4
2016-06-12T00:56:24.464Z,1004.41
2016-06-12T00:57:24.468Z,1004.4
2016-06-12T00:58:24.471Z,1004.42
2016-06-12T00:59:24.490Z,1004.42
2016-06-12T01:00:24.493Z,1004.39
2016-06-12T01:01:24.511Z,1004.36
2016-06-12T01:02:24.499Z,1004.38
2016-06-12T01:03:24.517Z,1004.36
2016-06-12T01:04:24.521Z,1004.33
2016-06-12T01:05:24.523Z,1004.33
2016-06-12T01:06:24.526Z,1004.33
2016-06-12T01:07:24.545Z,1004.3
2016-06-12T01:08:24.565Z,1004.33
2016-06-12T01:09:24.551Z,1004.29
2016-06-12T01:10:24.571Z,1004.29
2016-06-12T01:11:24.574Z,1004.27
2016-06-12T01:12:24.576Z,1004.3
2016-06-12T01:13:24.580Z,1004.3
2016-06-12T01:14:24.598Z,1004.28
2016-06-12T01:15:24.601Z,1004.27
2016-06-12T01:16:24.605Z,1004.26
2016-06-12T01:17:24.607Z,1004.28
2016-06-12T01:18:24.627Z,1004.25
2016-06-12T01:19:24.629Z,1004.26
2016-06-12T01:20:24.976Z,1004.24
2016-06-12T01:21:24.651Z,1004.21
2016-06-12T01:22:24.654Z,1004.2
2016-06-12T01:23:24.658Z,1004.2
2016-06-12T01:24:24.676Z,1004.2
2016-06-12T01:25:24.679Z,1004.21
2016-06-12T01:26:24.682Z,1004.2
2016-06-12T01:27:24.685Z,1004.18
2016-06-12T01:28:24.704Z,1004.18
2016-06-12T01:29:24.707Z,1004.17
2016-06-12T01:30:24.710Z,1004.16
2016-06-12T01:31:24.714Z,1004.16
2016-06-12T01:32:24.731Z,1004.16
2016-06-12T01:33:24.734Z,1004.16
2016-06-12T01:34:24.738Z,1004.15
2016-06-12T01:35:24.741Z,1004.12
2016-06-12T01:36:24.760Z,1004.13
2016-06-12T01:37:24.763Z,1004.15
2016-06-12T01:38:24.766Z,1004.13
2016-06-12T01:39:24.785Z,1004.13
2016-06-12T01:40:24.788Z,1004.14
2016-06-12T01:41:24.792Z,1004.11
2016-06-12T01:42:24.794Z,1004.14
2016-06-12T01:43:24.812Z,1004.1
2016-06-12T01:44:24.815Z,1004.12
2016-06-12T01:45:24.819Z,1004.12
2016-06-12T01:46:24.822Z,1004.09
2016-06-12T01:47:24.840Z,1004.08
2016-06-12T01:48:24.844Z,1004.07
2016-06-12T01:49:24.847Z,1004.07
2016-06-12T01:50:24.850Z,1004.06
2016-06-12T01:51:24.869Z,1004.03
2016-06-12T01:52:24.872Z,1004.01
2016-06-12T01:53:24.875Z,1004.07
2016-06-12T01:54:24.893Z,1004
2016-06-12T01:55:24.897Z,1004.07
2016-06-12T01:56:24.899Z,1004
2016-06-12T01:57:24.902Z,1004.02
2016-06-12T01:58:24.922Z,1004.01
2016-06-12T01:59:24.924Z,1004.01
2016-06-12T02:00:24.943Z,1004.01
2016-06-12T02:01:24.931Z,1003.98
2016-06-12T02:02:24.949Z,1003.99
2016-06-12T02:03:24.952Z,1004.01
2016-06-12T02:04:24.955Z,1003.99
2016-06-12T02:05:24.974Z,1003.99
2016-06-12T02:06:24.977Z,1003.97
2016-06-12T02:07:24.980Z,1003.96
2016-06-12T02:08:24.983Z,1003.99
2016-06-12T02:09:25.003Z,1004
2016-06-12T02:10:25.006Z,1003.95
2016-06-12T02:11:25.009Z,1003.96
2016-06-12T02:12:25.012Z,1003.97
2016-06-12T02:13:25.030Z,1003.92
2016-06-12T02:14:25.033Z,1003.92
2016-06-12T02:15:25.036Z,1003.92
2016-06-12T02:16:25.055Z,1003.89
2016-06-12T02:17:25.058Z,1003.87
2016-06-12T02:18:25.061Z,1003.84
2016-06-12T02:19:25.064Z,1003.85
2016-06-12T02:20:25.083Z,1003.83
2016-06-12T02:21:25.086Z,1003.84
2016-06-12T02:22:25.090Z,1003.86
2016-06-12T02:23:25.092Z,1003.86
2016-06-12T02:24:25.188Z,1003.85
2016-06-12T02:25:25.113Z,1003.84
2016-06-12T02:26:25.117Z,1003.84
2016-06-12T02:27:25.136Z,1003.84
2016-06-12T02:28:25.138Z,1003.88
2016-06-12T02:29:25.142Z,1003.88
2016-06-12T02:30:25.145Z,1003.83
2016-06-12T02:31:25.163Z,1003.85
2016-06-12T02:32:25.166Z,1003.79
2016-06-12T02:33:25.186Z,1003.78
2016-06-12T02:34:25.188Z,1003.79
2016-06-12T02:35:25.457Z,1003.78
2016-06-12T02:36:25.194Z,1003.75
2016-06-12T02:37:25.197Z,1003.74
2016-06-12T02:38:25.201Z,1003.72
2016-06-12T02:39:25.220Z,1003.7
2016-06-12T02:40:25.223Z,1003.69
2016-06-12T02:41:25.225Z,1003.68
2016-06-12T02:42:25.244Z,1003.67
2016-06-12T02:43:25.247Z,1003.69
2016-06-12T02:44:25.250Z,1003.7
2016-06-12T02:45:25.253Z,1003.65
2016-06-12T02:46:25.272Z,1003.69
2016-06-12T02:47:25.275Z,1003.62
2016-06-12T02:48:25.278Z,1003.68
2016-06-12T02:49:25.281Z,1003.67
2016-06-12T02:50:25.300Z,1003.71
2016-06-12T02:51:25.303Z,1003.7
2016-06-12T02:52:25.307Z,1003.64
2016-06-12T02:53:25.324Z,1003.68
2016-06-12T02:54:25.327Z,1003.67
2016-06-12T02:55:25.331Z,1003.71
2016-06-12T02:56:25.334Z,1003.7
2016-06-12T02:57:25.352Z,1003.72
2016-06-12T02:58:25.356Z,1003.73
2016-06-12T02:59:25.359Z,1003.7
2016-06-12T03:00:25.362Z,1003.72
2016-06-12T03:01:25.380Z,1003.75
2016-06-12T03:02:25.383Z,1003.72
2016-06-12T03:03:25.386Z,1003.74
2016-06-12T03:04:25.405Z,1003.72
2016-06-12T03:05:26.018Z,1003.75
2016-06-12T03:06:25.411Z,1003.75
2016-06-12T03:07:25.414Z,1003.73
2016-06-12T03:08:25.434Z,1003.75
2016-06-12T03:09:25.437Z,1003.75
2016-06-12T03:10:25.439Z,1003.76
2016-06-12T03:11:25.443Z,1003.77
2016-06-12T03:12:25.461Z,1003.73
2016-06-12T03:13:25.464Z,1003.74
2016-06-12T03:14:25.467Z,1003.73
2016-06-12T03:15:25.470Z,1003.75
2016-06-12T03:16:25.490Z,1003.79
2016-06-12T03:17:25.492Z,1003.76
2016-06-12T03:18:25.495Z,1003.79
2016-06-12T03:19:25.514Z,1003.79
2016-06-12T03:20:25.517Z,1003.81
2016-06-12T03:21:25.536Z,1003.8
2016-06-12T03:22:25.538Z,1003.83
2016-06-12T03:23:25.541Z,1003.82
2016-06-12T03:24:25.545Z,1003.79
2016-06-12T03:25:25.548Z,1003.8
2016-06-12T03:26:25.551Z,1003.81
2016-06-12T03:27:25.570Z,1003.79
2016-06-12T03:28:25.573Z,1003.78
2016-06-12T03:29:25.591Z,1003.77
2016-06-12T03:30:25.580Z,1003.73
2016-06-12T03:31:25.597Z,1003.79
2016-06-12T03:32:25.600Z,1003.73
2016-06-12T03:33:25.604Z,1003.78
2016-06-12T03:34:25.607Z,1003.76
2016-06-12T03:35:25.642Z,1003.78
2016-06-12T03:36:25.628Z,1003.74
2016-06-12T03:37:25.648Z,1003.74
2016-06-12T03:38:25.651Z,1003.74
2016-06-12T03:39:25.654Z,1003.77
2016-06-12T03:40:25.657Z,1003.72
2016-06-12T03:41:25.660Z,1003.72
2016-06-12T03:42:25.679Z,1003.7
2016-06-12T03:43:25.681Z,1003.7
2016-06-12T03:44:25.684Z,1003.68
2016-06-12T03:45:25.687Z,1003.68
2016-06-12T03:46:25.706Z,1003.7
2016-06-12T03:47:25.710Z,1003.69
2016-06-12T03:48:25.713Z,1003.67
2016-06-12T03:49:25.731Z,1003.68
2016-06-12T03:50:26.328Z,1003.7
2016-06-12T03:51:25.738Z,1003.71
2016-06-12T03:52:25.756Z,1003.72
2016-06-12T03:53:25.759Z,1003.69
2016-06-12T03:54:25.762Z,1003.71
2016-06-12T03:55:25.766Z,1003.74
2016-06-12T03:56:25.768Z,1003.7
2016-06-12T03:57:25.787Z,1003.72
2016-06-12T03:58:25.790Z,1003.65
2016-06-12T03:59:25.793Z,1003.72
2016-06-12T04:00:25.797Z,1003.72
2016-06-12T04:01:25.815Z,1003.72
2016-06-12T04:02:25.817Z,1003.72
2016-06-12T04:03:25.820Z,1003.73
2016-06-12T04:04:25.840Z,1003.75
2016-06-12T04:05:25.843Z,1003.77
2016-06-12T04:06:26.487Z,1003.8
2016-06-12T04:07:25.865Z,1003.76
2016-06-12T04:08:25.868Z,1003.8
2016-06-12T04:09:25.871Z,1003.81
2016-06-12T04:10:25.874Z,1003.85
2016-06-12T04:11:25.877Z,1003.84
2016-06-12T04:12:25.895Z,1003.84
2016-06-12T04:13:25.898Z,1003.84
2016-06-12T04:14:25.902Z,1003.86
2016-06-12T04:15:25.920Z,1003.87
2016-06-12T04:16:25.924Z,1003.87
2016-06-12T04:17:25.927Z,1003.91
2016-06-12T04:18:25.930Z,1003.89
2016-06-12T04:19:25.948Z,1003.87
2016-06-12T04:20:25.952Z,1003.93
2016-06-12T04:21:26.330Z,1003.87
2016-06-12T04:22:25.958Z,1003.92
2016-06-12T04:23:25.976Z,1003.89
2016-06-12T04:24:25.979Z,1003.9
2016-06-12T04:25:25.983Z,1003.91
2016-06-12T04:26:26.001Z,1003.9
2016-06-12T04:27:26.004Z,1003.94
2016-06-12T04:28:26.007Z,1003.92
2016-06-12T04:29:26.011Z,1003.91
2016-06-12T04:30:26.029Z,1003.93
2016-06-12T04:31:26.032Z,1003.94
2016-06-12T04:32:26.034Z,1003.94
2016-06-12T04:33:26.038Z,1003.9
2016-06-12T04:34:26.057Z,1003.89
2016-06-12T04:35:26.060Z,1003.88
2016-06-12T04:36:26.297Z,1003.9
2016-06-12T04:37:26.082Z,1003.89
2016-06-12T04:38:26.086Z,1003.87
2016-06-12T04:39:26.088Z,1003.92
2016-06-12T04:40:26.106Z,1003.88
2016-06-12T04:41:26.110Z,1003.87
2016-06-12T04:42:26.113Z,1003.88
2016-06-12T04:43:26.116Z,1003.91
2016-06-12T04:44:26.135Z,1003.9
2016-06-12T04:45:26.138Z,1003.89
2016-06-12T04:46:26.141Z,1003.92
2016-06-12T04:47:26.160Z,1003.93
2016-06-12T04:48:26.147Z,1003.94
2016-06-12T04:49:26.166Z,1003.9
2016-06-12T04:50:26.169Z,1003.93
2016-06-12T04:51:26.172Z,1003.92
2016-06-12T04:52:26.191Z,1003.89
2016-06-12T04:53:26.193Z,1003.9
2016-06-12T04:54:26.196Z,1003.91
2016-06-12T04:55:26.200Z,1003.92
2016-06-12T04:56:26.219Z,1003.93
2016-06-12T04:57:26.221Z,1003.93
2016-06-12T04:58:26.240Z,1003.94
2016-06-12T04:59:26.228Z,1003.93
2016-06-12T05:00:26.246Z,1003.9
2016-06-12T05:01:26.249Z,1003.9
2016-06-12T05:02:26.252Z,1003.89
2016-06-12T05:03:26.271Z,1003.87
2016-06-12T05:04:26.274Z,1003.87
2016-06-12T05:05:26.277Z,1003.88
2016-06-12T05:06:26.281Z,1003.86
2016-06-12T05:07:26.300Z,1003.91
2016-06-12T05:08:26.302Z,1003.89
2016-06-12T05:09:26.305Z,1003.85
2016-06-12T05:10:26.324Z,1003.82
2016-06-12T05:11:26.327Z,1003.86
2016-06-12T05:12:26.329Z,1003.84
2016-06-12T05:13:26.333Z,1003.88
2016-06-12T05:14:26.352Z,1003.87
2016-06-12T05:15:26.355Z,1003.84
2016-06-12T05:16:26.358Z,1003.81
2016-06-12T05:17:26.361Z,1003.84
2016-06-12T05:18:26.380Z,1003.84
2016-06-12T05:19:26.399Z,1003.82
2016-06-12T05:20:26.386Z,1003.85
2016-06-12T05:21:26.389Z,1003.83
2016-06-12T05:22:26.408Z,1003.84
2016-06-12T05:23:26.411Z,1003.8
2016-06-12T05:24:26.413Z,1003.83
2016-06-12T05:25:26.433Z,1003.81
2016-06-12T05:26:26.435Z,1003.83
2016-06-12T05:27:26.439Z,1003.8
2016-06-12T05:28:26.442Z,1003.85
2016-06-12T05:29:26.460Z,1003.81
2016-06-12T05:30:26.463Z,1003.85
2016-06-12T05:31:26.467Z,1003.85
2016-06-12T05:32:26.485Z,1003.85
2016-06-12T05:33:26.489Z,1003.81
2016-06-12T05:34:26.491Z,1003.85
2016-06-12T05:35:26.495Z,1003.82
2016-06-12T05:36:26.513Z,1003.83
2016-06-12T05:37:26.517Z,1003.78
2016-06-12T05:38:26.520Z,1003.79
2016-06-12T05:39:26.523Z,1003.79
2016-06-12T05:40:26.541Z,1003.79
2016-06-12T05:41:26.544Z,1003.77
2016-06-12T05:42:26.547Z,1003.81
2016-06-12T05:43:26.566Z,1003.78
2016-06-12T05:44:26.569Z,1003.77
2016-06-12T05:45:26.572Z,1003.78
2016-06-12T05:46:26.575Z,1003.79
2016-06-12T05:47:26.594Z,1003.77
2016-06-12T05:48:26.597Z,1003.76
2016-06-12T05:49:26.600Z,1003.76
2016-06-12T05:50:26.603Z,1003.77
2016-06-12T05:51:26.622Z,1003.75
2016-06-12T05:52:26.625Z,1003.77
2016-06-12T05:53:26.628Z,1003.76
2016-06-12T05:54:26.631Z,1003.74
2016-06-12T05:55:26.650Z,1003.72
2016-06-12T05:56:26.653Z,1003.71
2016-06-12T05:57:26.656Z,1003.7
2016-06-12T05:58:26.675Z,1003.68
2016-06-12T05:59:26.677Z,1003.67
2016-06-12T06:00:26.680Z,1003.69
2016-06-12T06:01:26.684Z,1003.67
2016-06-12T06:02:26.702Z,1003.7
2016-06-12T06:03:26.706Z,1003.64
2016-06-12T06:04:26.708Z,1003.7
2016-06-12T06:05:26.743Z,1003.68
2016-06-12T06:06:26.948Z,1003.65
2016-06-12T06:07:26.734Z,1003.68
2016-06-12T06:08:26.737Z,1003.65
2016-06-12T06:09:26.755Z,1003.65
2016-06-12T06:10:26.758Z,1003.63
2016-06-12T06:11:26.761Z,1003.67
2016-06-12T06:12:26.780Z,1003.66
2016-06-12T06:13:26.783Z,1003.67
2016-06-12T06:14:26.786Z,1003.66
2016-06-12T06:15:26.790Z,1003.67
2016-06-12T06:16:26.808Z,1003.65
2016-06-12T06:17:26.811Z,1003.64
2016-06-12T06:18:26.815Z,1003.67
2016-06-12T06:19:26.849Z,1003.65
2016-06-12T06:20:26.836Z,1003.65
2016-06-12T06:21:26.838Z,1003.67
2016-06-12T06:22:26.842Z,1003.66
2016-06-12T06:23:26.845Z,1003.65
2016-06-12T06:24:26.864Z,1003.7
2016-06-12T06:25:26.867Z,1003.63
2016-06-12T06:26:26.871Z,1003.61
2016-06-12T06:27:26.888Z,1003.66
2016-06-12T06:28:26.891Z,1003.63
2016-06-12T06:29:26.895Z,1003.65
2016-06-12T06:30:26.898Z,1003.65
2016-06-12T06:31:26.917Z,1003.62
2016-06-12T06:32:26.919Z,1003.69
2016-06-12T06:33:26.939Z,1003.69
2016-06-12T06:34:26.942Z,1003.68
2016-06-12T06:35:26.944Z,1003.68
2016-06-12T06:36:26.948Z,1003.69
2016-06-12T06:37:26.951Z,1003.68
2016-06-12T06:38:26.969Z,1003.75
2016-06-12T06:39:26.972Z,1003.72
2016-06-12T06:40:26.976Z,1003.71
2016-06-12T06:41:26.995Z,1003.72
2016-06-12T06:42:26.997Z,1003.73
2016-06-12T06:43:27.001Z,1003.72
2016-06-12T06:44:27.003Z,1003.74
2016-06-12T06:45:27.023Z,1003.73
2016-06-12T06:46:27.026Z,1003.71
2016-06-12T06:47:27.044Z,1003.74
2016-06-12T06:48:27.032Z,1003.7
2016-06-12T06:49:27.096Z,1003.72
2016-06-12T06:50:27.053Z,1003.68
2016-06-12T06:51:27.056Z,1003.73
2016-06-12T06:52:27.075Z,1003.72
2016-06-12T06:53:27.078Z,1003.72
2016-06-12T06:54:27.081Z,1003.72
2016-06-12T06:55:27.099Z,1003.73
2016-06-12T06:56:27.102Z,1003.7
2016-06-12T06:57:27.106Z,1003.71
2016-06-12T06:58:27.109Z,1003.73
2016-06-12T06:59:27.127Z,1003.72
2016-06-12T07:00:27.131Z,1003.74
2016-06-12T07:01:27.150Z,1003.68
2016-06-12T07:02:27.137Z,1003.66
2016-06-12T07:03:27.156Z,1003.67
2016-06-12T07:04:27.159Z,1003.64
2016-06-12T07:05:27.162Z,1003.64
2016-06-12T07:06:27.196Z,1003.68
2016-06-12T07:07:27.184Z,1003.69
2016-06-12T07:08:27.187Z,1003.71
2016-06-12T07:09:27.190Z,1003.65
2016-06-12T07:10:27.208Z,1003.68
2016-06-12T07:11:27.212Z,1003.67
2016-06-12T07:12:27.215Z,1003.69
2016-06-12T07:13:27.234Z,1003.66
2016-06-12T07:14:27.236Z,1003.68
2016-06-12T07:15:27.240Z,1003.65
2016-06-12T07:16:27.243Z,1003.63
2016-06-12T07:17:27.261Z,1003.66
2016-06-12T07:18:27.264Z,1003.64
2016-06-12T07:19:27.267Z,1003.65
2016-06-12T07:20:27.270Z,1003.66
2016-06-12T07:21:27.289Z,1003.65
2016-06-12T07:22:27.292Z,1003.67
2016-06-12T07:23:27.296Z,1003.65
2016-06-12T07:24:27.299Z,1003.65
2016-06-12T07:25:27.316Z,1003.64
2016-06-12T07:26:27.320Z,1003.66
2016-06-12T07:27:27.322Z,1003.69
2016-06-12T07:28:27.341Z,1003.65
2016-06-12T07:29:27.345Z,1003.66
2016-06-12T07:30:27.364Z,1003.68
2016-06-12T07:31:27.351Z,1003.66
2016-06-12T07:32:27.370Z,1003.66
2016-06-12T07:33:27.373Z,1003.68
2016-06-12T07:34:27.376Z,1003.67
2016-06-12T07:35:27.394Z,1003.7
2016-06-12T07:36:27.397Z,1003.64
2016-06-12T07:37:27.400Z,1003.65
2016-06-12T07:38:27.420Z,1003.66
2016-06-12T07:39:27.423Z,1003.68
2016-06-12T07:40:27.426Z,1003.67
2016-06-12T07:41:27.429Z,1003.66
2016-06-12T07:42:27.448Z,1003.65
2016-06-12T07:43:27.451Z,1003.61
2016-06-12T07:44:27.454Z,1003.62
2016-06-12T07:45:27.472Z,1003.59
2016-06-12T07:46:27.475Z,1003.6
2016-06-12T07:47:27.478Z,1003.56
2016-06-12T07:48:27.481Z,1003.6
2016-06-12T07:49:27.500Z,1003.56
2016-06-12T07:50:27.503Z,1003.63
2016-06-12T07:51:27.506Z,1003.59
2016-06-12T07:52:27.806Z,1003.6
2016-06-12T07:53:27.528Z,1003.58
2016-06-12T07:54:27.531Z,1003.55
2016-06-12T07:55:27.534Z,1003.55
2016-06-12T07:56:27.553Z,1003.6
2016-06-12T07:57:27.556Z,1003.56
2016-06-12T07:58:27.559Z,1003.57
2016-06-12T07:59:27.562Z,1003.57
2016-06-12T08:00:27.596Z,1003.57
2016-06-12T08:01:27.584Z,1003.59
2016-06-12T08:02:27.588Z,1003.53
2016-06-12T08:03:27.605Z,1003.54
2016-06-12T08:04:27.609Z,1003.55
2016-06-12T08:05:27.611Z,1003.51
2016-06-12T08:06:28.333Z,1003.55
2016-06-12T08:07:27.634Z,1003.52
2016-06-12T08:08:27.636Z,1003.51
2016-06-12T08:09:27.640Z,1003.5
2016-06-12T08:10:27.659Z,1003.5
2016-06-12T08:11:27.662Z,1003.48
2016-06-12T08:12:27.665Z,1003.5
2016-06-12T08:13:27.668Z,1003.49
2016-06-12T08:14:27.686Z,1003.49
2016-06-12T08:15:27.689Z,1003.51
2016-06-12T08:16:27.692Z,1003.49
2016-06-12T08:17:27.711Z,1003.47
2016-06-12T08:18:27.714Z,1003.45
2016-06-12T08:19:27.718Z,1003.45
2016-06-12T08:20:27.720Z,1003.45
2016-06-12T08:21:28.177Z,1003.47
2016-06-12T08:22:27.742Z,1003.47
2016-06-12T08:23:27.745Z,1003.44
2016-06-12T08:24:27.764Z,1003.43
2016-06-12T08:25:27.767Z,1003.46
2016-06-12T08:26:27.771Z,1003.45
2016-06-12T08:27:27.789Z,1003.45
2016-06-12T08:28:27.792Z,1003.46
2016-06-12T08:29:27.796Z,1003.47
2016-06-12T08:30:27.798Z,1003.44
2016-06-12T08:31:27.833Z,1003.48
2016-06-12T08:32:27.819Z,1003.49
2016-06-12T08:33:27.822Z,1003.48
2016-06-12T08:34:27.873Z,1003.49
2016-06-12T08:35:27.875Z,1003.46
2016-06-12T08:36:27.879Z,1003.46
2016-06-12T08:37:27.929Z,1003.46
2016-06-12T08:38:28.166Z,1003.43
2016-06-12T08:39:27.982Z,1003.44
2016-06-12T08:40:28.376Z,1003.44
2016-06-12T08:41:28.019Z,1003.42
2016-06-12T08:42:28.023Z,1003.43
2016-06-12T08:43:28.011Z,1003.43
2016-06-12T08:44:28.044Z,1003.44
2016-06-12T08:45:27.923Z,1003.45
2016-06-12T08:46:27.925Z,1003.49
2016-06-12T08:47:27.928Z,1003.49
2016-06-12T08:48:27.947Z,1003.45
2016-06-12T08:49:27.950Z,1003.47
2016-06-12T08:50:27.953Z,1003.45
2016-06-12T08:51:27.956Z,1003.45
2016-06-12T08:52:27.975Z,1003.47
2016-06-12T08:53:27.978Z,1003.45
2016-06-12T08:54:27.982Z,1003.45
2016-06-12T08:55:28.001Z,1003.47
2016-06-12T08:56:28.003Z,1003.41
2016-06-12T08:57:28.007Z,1003.42
2016-06-12T08:58:28.010Z,1003.45
2016-06-12T08:59:28.028Z,1003.44
2016-06-12T09:00:28.030Z,1003.44
2016-06-12T09:01:28.034Z,1003.4
2016-06-12T09:02:28.053Z,1003.4
2016-06-12T09:03:28.056Z,1003.4
2016-06-12T09:04:28.059Z,1003.42
2016-06-12T09:05:28.062Z,1003.4
2016-06-12T09:06:28.081Z,1003.4
2016-06-12T09:07:28.084Z,1003.41
2016-06-12T09:08:28.088Z,1003.34
2016-06-12T09:09:28.105Z,1003.41
2016-06-12T09:10:28.109Z,1003.37
2016-06-12T09:11:28.112Z,1003.37
2016-06-12T09:12:28.130Z,1003.34
2016-06-12T09:13:28.133Z,1003.36
2016-06-12T09:14:28.138Z,1003.37
2016-06-12T09:15:28.181Z,1003.33
2016-06-12T09:16:28.240Z,1003.34
2016-06-12T09:17:28.284Z,1003.32
2016-06-12T09:18:28.344Z,1003.35
2016-06-12T09:19:28.840Z,1003.33
2016-06-12T09:20:28.405Z,1003.35
2016-06-12T09:21:28.422Z,1003.36
2016-06-12T09:22:28.440Z,1003.32
2016-06-12T09:23:28.474Z,1003.35
2016-06-12T09:24:28.491Z,1003.35
2016-06-12T09:25:28.499Z,1003.36
2016-06-12T09:26:28.522Z,1003.36
2016-06-12T09:27:28.530Z,1003.37
2016-06-12T09:28:28.539Z,1003.35
2016-06-12T09:29:28.547Z,1003.37
2016-06-12T09:30:28.568Z,1003.38
2016-06-12T09:31:28.572Z,1003.34
2016-06-12T09:32:28.578Z,1003.36
2016-06-12T09:33:28.598Z,1003.36
2016-06-12T09:34:28.603Z,1003.37
2016-06-12T09:35:28.607Z,1003.39
2016-06-12T09:36:28.611Z,1003.41
2016-06-12T09:37:28.630Z,1003.4
2016-06-12T09:38:28.633Z,1003.44
2016-06-12T09:39:28.638Z,1003.42
2016-06-12T09:40:28.657Z,1003.43
2016-06-12T09:41:28.660Z,1003.43
2016-06-12T09:42:28.664Z,1003.44
2016-06-12T09:43:28.667Z,1003.45
2016-06-12T09:44:28.686Z,1003.4
2016-06-12T09:45:28.689Z,1003.41
2016-06-12T09:46:28.692Z,1003.4
2016-06-12T09:47:28.711Z,1003.42
2016-06-12T09:48:28.714Z,1003.38
2016-06-12T09:49:28.717Z,1003.38
2016-06-12T09:50:28.720Z,1003.39
2016-06-12T09:51:28.740Z,1003.41
2016-06-12T09:52:28.757Z,1003.37
2016-06-12T09:53:28.745Z,1003.38
2016-06-12T09:54:28.764Z,1003.36
2016-06-12T09:55:28.767Z,1003.31
2016-06-12T09:56:28.785Z,1003.34
2016-06-12T09:57:28.788Z,1003.36
2016-06-12T09:58:28.792Z,1003.35
2016-06-12T09:59:29.139Z,1003.38
2016-06-12T10:00:28.814Z,1003.38
2016-06-12T10:01:28.832Z,1003.34
2016-06-12T10:02:28.820Z,1003.3
2016-06-12T10:03:28.823Z,1003.28
2016-06-12T10:04:28.841Z,1003.32
2016-06-12T10:05:54.516Z,1003.31
2016-06-12T10:06:28.848Z,1003.29
2016-06-12T10:07:28.866Z,1003.27
2016-06-12T10:08:28.869Z,1003.28
2016-06-12T10:09:28.888Z,1003.27
2016-06-12T10:10:28.876Z,1003.29
2016-06-12T10:11:28.893Z,1003.31
2016-06-12T10:12:28.897Z,1003.28
2016-06-12T10:13:28.900Z,1003.27
2016-06-12T10:14:29.341Z,1003.29
2016-06-12T10:15:28.922Z,1003.28
2016-06-12T10:16:28.925Z,1003.24
2016-06-12T10:17:28.928Z,1003.25
2016-06-12T10:18:28.947Z,1003.23
2016-06-12T10:19:28.966Z,1003.22
2016-06-12T10:20:28.968Z,1003.22
2016-06-12T10:21:28.971Z,1003.23
2016-06-12T10:22:29.491Z,1003.24
2016-06-12T10:23:28.978Z,1003.23
2016-06-12T10:24:28.981Z,1003.28
2016-06-12T10:25:29.000Z,1003.24
2016-06-12T10:26:29.003Z,1003.24
2016-06-12T10:27:29.006Z,1003.21
2016-06-12T10:28:29.025Z,1003.22
2016-06-12T10:29:29.028Z,1003.22
2016-06-12T10:30:29.031Z,1003.2
2016-06-12T10:31:29.035Z,1003.22
2016-06-12T10:32:29.053Z,1003.18
2016-06-12T10:33:29.056Z,1003.17
2016-06-12T10:34:29.058Z,1003.21
2016-06-12T10:35:29.078Z,1003.18
2016-06-12T10:36:29.081Z,1003.16
2016-06-12T10:37:29.881Z,1003.17
2016-06-12T10:38:29.087Z,1003.16
2016-06-12T10:39:29.105Z,1003.16
2016-06-12T10:40:29.108Z,1003.15
2016-06-12T10:41:29.111Z,1003.15
2016-06-12T10:42:29.130Z,1003.14
2016-06-12T10:43:29.133Z,1003.13
2016-06-12T10:44:29.136Z,1003.11
2016-06-12T10:45:29.139Z,1003.13
2016-06-12T10:46:29.158Z,1003.07
2016-06-12T10:47:29.161Z,1003.04
2016-06-12T10:48:29.165Z,1003.09
2016-06-12T10:49:29.183Z,1003.06
2016-06-12T10:50:29.185Z,1003.05
2016-06-12T10:51:29.189Z,1003.04
2016-06-12T10:52:29.192Z,1003.04
2016-06-12T10:53:29.210Z,1003.02
2016-06-12T10:54:29.214Z,1003.03
2016-06-12T10:55:29.217Z,1002.97
2016-06-12T10:56:29.236Z,1003
2016-06-12T10:57:29.239Z,1003.04
2016-06-12T10:58:29.243Z,1003
2016-06-12T10:59:29.260Z,1003.02
2016-06-12T11:00:29.263Z,1002.99
2016-06-12T11:01:29.266Z,1002.96
2016-06-12T11:02:29.286Z,1002.96
2016-06-12T11:03:29.289Z,1003.01
2016-06-12T11:04:29.291Z,1002.96
2016-06-12T11:05:29.295Z,1003
2016-06-12T11:06:29.313Z,1002.98
2016-06-12T11:07:29.409Z,1002.96
2016-06-12T11:08:29.444Z,1002.92
2016-06-12T11:09:29.432Z,1002.96
2016-06-12T11:10:29.482Z,1002.95
2016-06-12T11:11:29.469Z,1002.9
2016-06-12T11:12:29.441Z,1002.89
2016-06-12T11:13:29.475Z,1002.88
2016-06-12T11:14:29.448Z,1002.89
2016-06-12T11:15:29.482Z,1002.89
2016-06-12T11:16:29.829Z,1002.89
2016-06-12T11:17:29.488Z,1002.89
2016-06-12T11:18:29.396Z,1002.87
2016-06-12T11:19:29.400Z,1002.85
2016-06-12T11:20:29.419Z,1002.83
2016-06-12T11:21:29.422Z,1002.84
2016-06-12T11:22:29.425Z,1002.84
2016-06-12T11:23:29.444Z,1002.83
2016-06-12T11:24:29.447Z,1002.82
2016-06-12T11:25:29.450Z,1002.81
2016-06-12T11:26:29.468Z,1002.81
2016-06-12T11:27:29.471Z,1002.8
2016-06-12T11:28:29.474Z,1002.75
2016-06-12T11:29:29.478Z,1002.77
2016-06-12T11:30:29.496Z,1002.78
2016-06-12T11:31:29.499Z,1002.76
2016-06-12T11:32:29.503Z,1002.75
2016-06-12T11:33:29.521Z,1002.79
2016-06-12T11:34:29.524Z,1002.78
2016-06-12T11:35:29.527Z,1002.8
2016-06-12T11:36:29.530Z,1002.79
2016-06-12T11:37:29.941Z,1002.77
2016-06-12T11:38:29.553Z,1002.73
2016-06-12T11:39:29.572Z,1002.72
2016-06-12T11:40:29.575Z,1002.73
2016-06-12T11:41:29.577Z,1002.71
2016-06-12T11:42:29.580Z,1002.75
2016-06-12T11:43:29.598Z,1002.68
2016-06-12T11:44:29.601Z,1002.66
2016-06-12T11:45:29.605Z,1002.66
2016-06-12T11:46:29.608Z,1002.65
2016-06-12T11:47:29.627Z,1002.67
2016-06-12T11:48:29.630Z,1002.64
2016-06-12T11:49:29.633Z,1002.64
2016-06-12T11:50:29.652Z,1002.67
2016-06-12T11:51:29.686Z,1002.67
2016-06-12T11:52:29.658Z,1002.66
2016-06-12T11:53:29.662Z,1002.63
2016-06-12T11:54:29.679Z,1002.65
2016-06-12T11:55:29.683Z,1002.64
2016-06-12T11:56:29.686Z,1002.67
2016-06-12T11:57:29.704Z,1002.64
2016-06-12T11:58:29.707Z,1002.63
2016-06-12T11:59:29.711Z,1002.6
2016-06-12T12:00:29.729Z,1002.6
2016-06-12T12:01:29.732Z,1002.6
2016-06-12T12:02:29.735Z,1002.58
2016-06-12T12:03:29.754Z,1002.54
2016-06-12T12:04:29.757Z,1002.6
2016-06-12T12:05:29.760Z,1002.59
2016-06-12T12:06:29.763Z,1002.6
2016-06-12T12:07:29.782Z,1002.59
2016-06-12T12:08:29.785Z,1002.6